sensor_id;sensor_type;location;lat;lon;timestamp;pressure;altitude;pressure_sealevel;temperature;humidity
5284;BME280;15377;48.540;9.268;2023-10-08T00:00:48;98389.00;;;12.85;100.00
5284;BME280;15377;48.540;9.268;2023-10-08T00:03:21;98393.94;;;12.81;100.00
5284;BME280;15377;48.540;9.268;2023-10-08T00:05:47;98382.91;;;12.81;100.00
5284;BME280;15377;48.540;9.268;2023-10-08T00:08:12;98387.78;;;12.77;100.00
5284;BME280;15377;48.540;9.268;2023-10-08T00:10:41;98383.94;;;12.74;100.00
5284;BME280;15377;48.540;9.268;2023-10-08T00:13:08;98385.34;;;12.79;100.00
5284;BME280;15377;48.540;9.268;2023-10-08T00:15:37;98383.47;;;12.85;100.00
5284;BME280;15377;48.540;9.268;2023-10-08T00:18:06;98366.88;;;12.94;100.00
5284;BME280;15377;48.540;9.268;2023-10-08T00:20:34;98370.59;;;12.91;100.00
5284;BME280;15377;48.540;9.268;2023-10-08T00:23:18;98370.63;;;12.73;100.00
5284;BME280;15377;48.540;9.268;2023-10-08T00:25:44;98366.00;;;12.70;100.00
5284;BME280;15377;48.540;9.268;2023-10-08T00:28:12;98366.03;;;12.79;100.00
5284;BME280;15377;48.540;9.268;2023-10-08T00:30:41;98355.59;;;12.74;100.00
5284;BME280;15377;48.540;9.268;2023-10-08T00:33:08;98342.69;;;12.80;100.00
5284;BME280;15377;48.540;9.268;2023-10-08T00:35:41;98346.97;;;12.90;100.00
5284;BME280;15377;48.540;9.268;2023-10-08T00:38:09;98342.06;;;13.03;100.00
5284;BME280;15377;48.540;9.268;2023-10-08T00:40:45;98340.78;;;13.13;100.00
5284;BME280;15377;48.540;9.268;2023-10-08T00:43:28;98336.03;;;13.04;100.00
5284;BME280;15377;48.540;9.268;2023-10-08T00:45:54;98334.38;;;12.89;100.00
5284;BME280;15377;48.540;9.268;2023-10-08T00:48:19;98330.44;;;12.72;100.00
5284;BME280;15377;48.540;9.268;2023-10-08T00:50:53;98328.00;;;12.56;100.00
5284;BME280;15377;48.540;9.268;2023-10-08T00:53:35;98331.38;;;12.42;100.00
5284;BME280;15377;48.540;9.268;2023-10-08T00:56:06;98325.25;;;12.47;100.00
5284;BME280;15377;48.540;9.268;2023-10-08T00:58:37;98321.09;;;12.51;100.00
5284;BME280;15377;48.540;9.268;2023-10-08T01:01:04;98323.69;;;12.46;100.00
5284;BME280;15377;48.540;9.268;2023-10-08T01:03:37;98319.09;;;12.52;100.00
5284;BME280;15377;48.540;9.268;2023-10-08T01:06:09;98302.69;;;12.48;100.00
5284;BME280;15377;48.540;9.268;2023-10-08T01:08:36;98312.66;;;12.46;100.00
5284;BME280;15377;48.540;9.268;2023-10-08T01:11:21;98311.88;;;12.54;100.00
5284;BME280;15377;48.540;9.268;2023-10-08T01:13:58;98323.38;;;12.71;100.00
5284;BME280;15377;48.540;9.268;2023-10-08T01:16:25;98319.06;;;12.70;100.00
5284;BME280;15377;48.540;9.268;2023-10-08T01:18:53;98313.69;;;12.66;100.00
5284;BME280;15377;48.540;9.268;2023-10-08T01:21:20;98315.72;;;12.66;100.00
5284;BME280;15377;48.540;9.268;2023-10-08T01:24:04;98315.72;;;12.66;100.00
5284;BME280;15377;48.540;9.268;2023-10-08T01:26:33;98302.84;;;12.63;100.00
5284;BME280;15377;48.540;9.268;2023-10-08T01:28:59;98312.97;;;12.57;100.00
5284;BME280;15377;48.540;9.268;2023-10-08T01:31:32;98309.91;;;12.55;100.00
5284;BME280;15377;48.540;9.268;2023-10-08T01:33:58;98311.13;;;12.45;100.00
5284;BME280;15377;48.540;9.268;2023-10-08T01:36:26;98309.59;;;12.44;100.00
5284;BME280;15377;48.540;9.268;2023-10-08T01:38:53;98305.16;;;12.37;100.00
5284;BME280;15377;48.540;9.268;2023-10-08T01:41:20;98318.34;;;12.42;100.00
5284;BME280;15377;48.540;9.268;2023-10-08T01:43:47;98316.66;;;12.36;100.00
5284;BME280;15377;48.540;9.268;2023-10-08T01:46:15;98305.00;;;12.23;100.00
5284;BME280;15377;48.540;9.268;2023-10-08T01:48:41;98289.38;;;12.20;100.00
5284;BME280;15377;48.540;9.268;2023-10-08T01:51:10;98284.31;;;12.09;100.00
5284;BME280;15377;48.540;9.268;2023-10-08T01:53:37;98304.72;;;12.12;100.00
5284;BME280;15377;48.540;9.268;2023-10-08T01:56:04;98291.69;;;12.03;100.00
5284;BME280;15377;48.540;9.268;2023-10-08T01:58:29;98290.63;;;11.92;100.00
5284;BME280;15377;48.540;9.268;2023-10-08T02:00:55;98279.59;;;11.92;100.00
5284;BME280;15377;48.540;9.268;2023-10-08T02:03:24;98301.97;;;11.85;100.00
5284;BME280;15377;48.540;9.268;2023-10-08T02:05:49;98268.53;;;11.74;100.00
5284;BME280;15377;48.540;9.268;2023-10-08T02:08:19;98282.63;;;11.76;100.00
5284;BME280;15377;48.540;9.268;2023-10-08T02:10:45;98283.38;;;11.67;100.00
5284;BME280;15377;48.540;9.268;2023-10-08T02:13:14;98291.66;;;11.58;100.00
5284;BME280;15377;48.540;9.268;2023-10-08T02:15:49;98293.75;;;11.54;100.00
5284;BME280;15377;48.540;9.268;2023-10-08T02:18:17;98293.56;;;11.40;100.00
5284;BME280;15377;48.540;9.268;2023-10-08T02:20:43;98294.81;;;11.48;100.00
5284;BME280;15377;48.540;9.268;2023-10-08T02:23:08;98287.28;;;11.39;100.00
5284;BME280;15377;48.540;9.268;2023-10-08T02:25:37;98290.44;;;11.20;100.00
5284;BME280;15377;48.540;9.268;2023-10-08T02:28:08;98296.84;;;11.17;100.00
5284;BME280;15377;48.540;9.268;2023-10-08T02:30:35;98289.53;;;11.23;100.00
5284;BME280;15377;48.540;9.268;2023-10-08T02:33:01;98288.00;;;11.22;100.00
5284;BME280;15377;48.540;9.268;2023-10-08T02:35:27;98292.00;;;11.30;100.00
5284;BME280;15377;48.540;9.268;2023-10-08T02:37:52;98294.31;;;11.40;100.00
5284;BME280;15377;48.540;9.268;2023-10-08T02:40:20;98284.06;;;11.41;100.00
5284;BME280;15377;48.540;9.268;2023-10-08T02:42:52;98300.31;;;11.48;100.00
5284;BME280;15377;48.540;9.268;2023-10-08T02:45:27;98283.78;;;11.48;100.00
5284;BME280;15377;48.540;9.268;2023-10-08T02:47:53;98301.25;;;11.45;100.00
5284;BME280;15377;48.540;9.268;2023-10-08T02:50:19;98304.72;;;11.36;100.00
5284;BME280;15377;48.540;9.268;2023-10-08T02:52:45;98298.38;;;11.18;100.00
5284;BME280;15377;48.540;9.268;2023-10-08T02:55:11;98316.06;;;11.38;100.00
5284;BME280;15377;48.540;9.268;2023-10-08T02:58:02;98304.88;;;11.33;100.00
5284;BME280;15377;48.540;9.268;2023-10-08T03:00:29;98317.72;;;11.36;100.00
5284;BME280;15377;48.540;9.268;2023-10-08T03:02:56;98316.38;;;11.40;100.00
5284;BME280;15377;48.540;9.268;2023-10-08T03:05:22;98316.06;;;11.47;100.00
5284;BME280;15377;48.540;9.268;2023-10-08T03:07:48;98316.84;;;11.39;100.00
5284;BME280;15377;48.540;9.268;2023-10-08T03:10:16;98318.91;;;11.17;100.00
5284;BME280;15377;48.540;9.268;2023-10-08T03:12:44;98319.19;;;11.19;100.00
5284;BME280;15377;48.540;9.268;2023-10-08T03:15:12;98311.59;;;11.23;100.00
5284;BME280;15377;48.540;9.268;2023-10-08T03:18:03;98309.72;;;11.20;100.00
5284;BME280;15377;48.540;9.268;2023-10-08T03:20:36;98307.69;;;11.02;100.00
5284;BME280;15377;48.540;9.268;2023-10-08T03:23:09;98299.59;;;11.08;100.00
5284;BME280;15377;48.540;9.268;2023-10-08T03:25:54;98304.44;;;11.04;100.00
5284;BME280;15377;48.540;9.268;2023-10-08T03:28:30;98308.44;;;11.03;100.00
5284;BME280;15377;48.540;9.268;2023-10-08T03:31:00;98300.63;;;11.01;100.00
5284;BME280;15377;48.540;9.268;2023-10-08T03:33:39;98294.75;;;11.21;100.00
5284;BME280;15377;48.540;9.268;2023-10-08T03:36:06;98302.69;;;11.19;100.00
5284;BME280;15377;48.540;9.268;2023-10-08T03:39:01;98289.69;;;11.19;100.00
5284;BME280;15377;48.540;9.268;2023-10-08T03:41:36;98299.91;;;11.19;100.00
5284;BME280;15377;48.540;9.268;2023-10-08T03:44:05;98304.53;;;11.22;100.00
5284;BME280;15377;48.540;9.268;2023-10-08T03:46:32;98308.44;;;11.03;100.00
5284;BME280;15377;48.540;9.268;2023-10-08T03:49:04;98301.38;;;11.02;100.00
5284;BME280;15377;48.540;9.268;2023-10-08T03:51:32;98295.41;;;10.94;100.00
5284;BME280;15377;48.540;9.268;2023-10-08T03:54:05;98299.50;;;10.90;100.00
5284;BME280;15377;48.540;9.268;2023-10-08T03:56:39;98298.25;;;10.82;100.00
5284;BME280;15377;48.540;9.268;2023-10-08T03:59:06;98299.66;;;10.65;100.00
5284;BME280;15377;48.540;9.268;2023-10-08T04:01:58;98308.84;;;10.62;100.00
5284;BME280;15377;48.540;9.268;2023-10-08T04:04:43;98317.44;;;10.73;100.00
5284;BME280;15377;48.540;9.268;2023-10-08T04:07:40;98281.56;;;10.55;100.00
5284;BME280;15377;48.540;9.268;2023-10-08T04:10:29;98319.91;;;10.71;100.00
5284;BME280;15377;48.540;9.268;2023-10-08T04:13:04;98314.16;;;10.57;100.00
5284;BME280;15377;48.540;9.268;2023-10-08T04:15:34;98316.38;;;10.49;100.00
5284;BME280;15377;48.540;9.268;2023-10-08T04:17:59;98315.56;;;10.40;100.00
5284;BME280;15377;48.540;9.268;2023-10-08T04:20:28;98319.47;;;10.30;100.00
5284;BME280;15377;48.540;9.268;2023-10-08T04:23:03;98323.50;;;10.38;100.00
5284;BME280;15377;48.540;9.268;2023-10-08T04:25:30;98322.41;;;10.57;100.00
5284;BME280;15377;48.540;9.268;2023-10-08T04:27:57;98326.31;;;10.68;100.00
5284;BME280;15377;48.540;9.268;2023-10-08T04:30:26;98321.44;;;10.72;100.00
5284;BME280;15377;48.540;9.268;2023-10-08T04:33:02;98310.88;;;10.71;100.00
5284;BME280;15377;48.540;9.268;2023-10-08T04:35:39;98317.88;;;10.63;100.00
5284;BME280;15377;48.540;9.268;2023-10-08T04:38:16;98323.41;;;10.50;100.00
5284;BME280;15377;48.540;9.268;2023-10-08T04:40:44;98313.13;;;10.42;100.00
5284;BME280;15377;48.540;9.268;2023-10-08T04:43:21;98310.78;;;10.31;100.00
5284;BME280;15377;48.540;9.268;2023-10-08T04:45:57;98310.84;;;10.19;100.00
5284;BME280;15377;48.540;9.268;2023-10-08T04:48:23;98309.41;;;10.14;100.00
5284;BME280;15377;48.540;9.268;2023-10-08T04:50:50;98301.88;;;10.27;100.00
5284;BME280;15377;48.540;9.268;2023-10-08T04:53:25;98303.72;;;10.52;100.00
5284;BME280;15377;48.540;9.268;2023-10-08T04:56:00;98303.91;;;10.57;100.00
5284;BME280;15377;48.540;9.268;2023-10-08T04:58:39;98305.72;;;10.51;100.00
5284;BME280;15377;48.540;9.268;2023-10-08T05:01:06;98265.16;;;10.21;100.00
5284;BME280;15377;48.540;9.268;2023-10-08T05:03:51;98302.56;;;10.40;100.00
5284;BME280;15377;48.540;9.268;2023-10-08T05:06:36;98304.16;;;10.50;100.00
5284;BME280;15377;48.540;9.268;2023-10-08T05:09:12;98313.25;;;10.60;100.00
5284;BME280;15377;48.540;9.268;2023-10-08T05:11:51;98307.81;;;10.47;100.00
5284;BME280;15377;48.540;9.268;2023-10-08T05:17:07;98318.66;;;10.20;100.00
5284;BME280;15377;48.540;9.268;2023-10-08T05:19:37;98330.66;;;10.14;100.00
5284;BME280;15377;48.540;9.268;2023-10-08T05:22:07;98326.38;;;10.00;100.00
5284;BME280;15377;48.540;9.268;2023-10-08T05:24:51;98309.50;;;9.89;100.00
5284;BME280;15377;48.540;9.268;2023-10-08T05:27:40;98313.22;;;9.95;100.00
5284;BME280;15377;48.540;9.268;2023-10-08T05:30:15;98322.41;;;10.01;100.00
5284;BME280;15377;48.540;9.268;2023-10-08T05:32:44;98309.13;;;10.00;100.00
5284;BME280;15377;48.540;9.268;2023-10-08T05:35:34;98321.44;;;10.08;100.00
5284;BME280;15377;48.540;9.268;2023-10-08T05:38:09;98308.34;;;9.99;100.00
5284;BME280;15377;48.540;9.268;2023-10-08T05:40:44;98323.72;;;10.09;100.00
5284;BME280;15377;48.540;9.268;2023-10-08T05:43:23;98317.59;;;10.05;100.00
5284;BME280;15377;48.540;9.268;2023-10-08T05:46:10;98325.94;;;10.14;100.00
5284;BME280;15377;48.540;9.268;2023-10-08T05:48:44;98319.53;;;10.17;100.00
5284;BME280;15377;48.540;9.268;2023-10-08T05:51:16;98338.28;;;10.31;100.00
5284;BME280;15377;48.540;9.268;2023-10-08T05:53:59;98330.81;;;10.32;100.00
5284;BME280;15377;48.540;9.268;2023-10-08T05:56:24;98348.91;;;10.42;100.00
5284;BME280;15377;48.540;9.268;2023-10-08T05:59:07;98341.50;;;10.51;100.00
5284;BME280;15377;48.540;9.268;2023-10-08T06:01:43;98350.78;;;10.66;100.00
5284;BME280;15377;48.540;9.268;2023-10-08T06:04:11;98356.00;;;10.73;100.00
5284;BME280;15377;48.540;9.268;2023-10-08T06:06:56;98358.03;;;10.82;100.00
5284;BME280;15377;48.540;9.268;2023-10-08T06:09:38;98358.22;;;10.87;100.00
5284;BME280;15377;48.540;9.268;2023-10-08T06:12:05;98353.41;;;11.00;100.00
5284;BME280;15377;48.540;9.268;2023-10-08T06:14:36;98358.69;;;11.16;100.00
5284;BME280;15377;48.540;9.268;2023-10-08T06:17:18;98360.91;;;11.30;100.00
5284;BME280;15377;48.540;9.268;2023-10-08T06:20:01;98360.28;;;11.35;100.00
5284;BME280;15377;48.540;9.268;2023-10-08T06:22:35;98356.69;;;11.47;100.00
5284;BME280;15377;48.540;9.268;2023-10-08T06:25:00;98364.06;;;11.59;100.00
5284;BME280;15377;48.540;9.268;2023-10-08T06:27:42;98360.31;;;11.74;100.00
5284;BME280;15377;48.540;9.268;2023-10-08T06:30:11;98357.13;;;11.85;100.00
5284;BME280;15377;48.540;9.268;2023-10-08T06:32:43;98350.53;;;12.00;100.00
5284;BME280;15377;48.540;9.268;2023-10-08T06:35:09;98365.13;;;12.19;100.00
5284;BME280;15377;48.540;9.268;2023-10-08T06:37:43;98370.50;;;12.31;100.00
5284;BME280;15377;48.540;9.268;2023-10-08T06:40:08;98351.31;;;12.28;100.00
5284;BME280;15377;48.540;9.268;2023-10-08T06:42:54;98361.44;;;12.49;100.00
5284;BME280;15377;48.540;9.268;2023-10-08T06:45:22;98363.56;;;12.54;100.00
5284;BME280;15377;48.540;9.268;2023-10-08T06:47:47;98376.31;;;12.69;100.00
5284;BME280;15377;48.540;9.268;2023-10-08T06:50:15;98369.06;;;12.90;100.00
5284;BME280;15377;48.540;9.268;2023-10-08T06:52:41;98363.09;;;13.00;100.00
5284;BME280;15377;48.540;9.268;2023-10-08T06:55:09;98358.75;;;13.08;100.00
5284;BME280;15377;48.540;9.268;2023-10-08T06:57:37;98348.91;;;13.16;100.00
5284;BME280;15377;48.540;9.268;2023-10-08T07:00:04;98353.13;;;13.35;100.00
5284;BME280;15377;48.540;9.268;2023-10-08T07:02:37;98350.88;;;13.57;100.00
5284;BME280;15377;48.540;9.268;2023-10-08T07:05:05;98336.81;;;13.70;100.00
5284;BME280;15377;48.540;9.268;2023-10-08T07:07:34;98352.97;;;13.95;100.00
5284;BME280;15377;48.540;9.268;2023-10-08T07:10:05;98351.13;;;14.15;100.00
5284;BME280;15377;48.540;9.268;2023-10-08T07:12:35;98347.41;;;14.42;100.00
5284;BME280;15377;48.540;9.268;2023-10-08T07:15:01;98351.00;;;14.71;100.00
5284;BME280;15377;48.540;9.268;2023-10-08T07:17:29;98347.94;;;14.98;100.00
5284;BME280;15377;48.540;9.268;2023-10-08T07:20:06;98355.47;;;15.41;100.00
5284;BME280;15377;48.540;9.268;2023-10-08T07:22:38;98349.88;;;15.70;100.00
5284;BME280;15377;48.540;9.268;2023-10-08T07:25:05;98330.50;;;15.90;100.00
5284;BME280;15377;48.540;9.268;2023-10-08T07:27:33;98341.31;;;16.08;100.00
5284;BME280;15377;48.540;9.268;2023-10-08T07:30:03;98333.16;;;16.24;100.00
5284;BME280;15377;48.540;9.268;2023-10-08T07:32:41;98331.53;;;16.32;100.00
5284;BME280;15377;48.540;9.268;2023-10-08T07:35:07;98336.81;;;16.50;100.00
5284;BME280;15377;48.540;9.268;2023-10-08T07:38:01;98338.84;;;16.75;100.00
5284;BME280;15377;48.540;9.268;2023-10-08T07:40:28;98345.34;;;16.98;100.00
5284;BME280;15377;48.540;9.268;2023-10-08T07:42:54;98347.91;;;17.27;100.00
5284;BME280;15377;48.540;9.268;2023-10-08T07:45:20;98348.69;;;17.58;100.00
5284;BME280;15377;48.540;9.268;2023-10-08T07:47:47;98354.69;;;17.88;100.00
5284;BME280;15377;48.540;9.268;2023-10-08T07:50:13;98359.66;;;18.20;100.00
5284;BME280;15377;48.540;9.268;2023-10-08T07:52:41;98358.81;;;18.45;100.00
5284;BME280;15377;48.540;9.268;2023-10-08T07:55:09;98361.13;;;18.63;100.00
5284;BME280;15377;48.540;9.268;2023-10-08T07:57:35;98364.97;;;18.82;100.00
5284;BME280;15377;48.540;9.268;2023-10-08T08:00:00;98357.13;;;18.86;100.00
5284;BME280;15377;48.540;9.268;2023-10-08T08:02:47;98365.50;;;18.91;100.00
5284;BME280;15377;48.540;9.268;2023-10-08T08:05:13;98356.59;;;18.87;100.00
5284;BME280;15377;48.540;9.268;2023-10-08T08:07:42;98359.41;;;18.82;100.00
5284;BME280;15377;48.540;9.268;2023-10-08T08:10:11;98362.19;;;18.87;100.00
5284;BME280;15377;48.540;9.268;2023-10-08T08:12:37;98360.97;;;19.05;100.00
5284;BME280;15377;48.540;9.268;2023-10-08T08:15:03;98368.34;;;19.30;100.00
5284;BME280;15377;48.540;9.268;2023-10-08T08:17:40;98368.63;;;19.43;100.00
5284;BME280;15377;48.540;9.268;2023-10-08T08:20:06;98369.13;;;19.58;100.00
5284;BME280;15377;48.540;9.268;2023-10-08T08:22:43;98364.56;;;19.55;100.00
5284;BME280;15377;48.540;9.268;2023-10-08T08:25:16;98361.78;;;19.55;100.00
5284;BME280;15377;48.540;9.268;2023-10-08T08:27:42;98372.16;;;19.65;100.00
5284;BME280;15377;48.540;9.268;2023-10-08T08:30:12;98373.19;;;19.79;100.00
5284;BME280;15377;48.540;9.268;2023-10-08T08:32:41;98376.19;;;19.92;100.00
5284;BME280;15377;48.540;9.268;2023-10-08T08:35:11;98361.97;;;19.90;100.00
5284;BME280;15377;48.540;9.268;2023-10-08T08:37:37;98368.09;;;19.72;100.00
5284;BME280;15377;48.540;9.268;2023-10-08T08:40:04;98372.16;;;19.60;100.00
5284;BME280;15377;48.540;9.268;2023-10-08T08:42:50;98377.25;;;19.56;100.00
5284;BME280;15377;48.540;9.268;2023-10-08T08:45:23;98372.16;;;19.65;100.00
5284;BME280;15377;48.540;9.268;2023-10-08T08:47:53;98370.59;;;19.92;100.00
5284;BME280;15377;48.540;9.268;2023-10-08T08:50:18;98368.69;;;20.44;100.00
5284;BME280;15377;48.540;9.268;2023-10-08T08:52:45;98368.66;;;21.01;100.00
5284;BME280;15377;48.540;9.268;2023-10-08T08:55:11;98371.34;;;21.82;100.00
5284;BME280;15377;48.540;9.268;2023-10-08T08:57:44;98395.09;;;22.71;100.00
5284;BME280;15377;48.540;9.268;2023-10-08T09:00:15;98403.66;;;23.52;100.00
5284;BME280;15377;48.540;9.268;2023-10-08T09:02:47;98409.25;;;24.28;96.39
5284;BME280;15377;48.540;9.268;2023-10-08T09:05:14;98408.09;;;24.63;91.48
5284;BME280;15377;48.540;9.268;2023-10-08T09:08:00;98403.56;;;25.06;88.82
5284;BME280;15377;48.540;9.268;2023-10-08T09:10:29;98412.91;;;24.88;86.62
5284;BME280;15377;48.540;9.268;2023-10-08T09:12:58;98406.66;;;24.69;89.52
5284;BME280;15377;48.540;9.268;2023-10-08T09:15:27;98407.97;;;24.55;86.19
5284;BME280;15377;48.540;9.268;2023-10-08T09:17:54;98401.78;;;24.44;85.90
5284;BME280;15377;48.540;9.268;2023-10-08T09:20:20;98403.16;;;24.89;87.79
5284;BME280;15377;48.540;9.268;2023-10-08T09:22:47;98409.94;;;25.53;84.56
5284;BME280;15377;48.540;9.268;2023-10-08T09:25:32;98419.38;;;25.97;80.05
5284;BME280;15377;48.540;9.268;2023-10-08T09:27:58;98425.69;;;26.10;78.03
5284;BME280;15377;48.540;9.268;2023-10-08T09:30:23;98420.03;;;26.10;78.93
5284;BME280;15377;48.540;9.268;2023-10-08T09:32:51;98425.50;;;26.08;78.56
5284;BME280;15377;48.540;9.268;2023-10-08T09:35:17;98424.78;;;26.43;80.92
5284;BME280;15377;48.540;9.268;2023-10-08T09:37:44;98419.69;;;27.05;78.49
5284;BME280;15377;48.540;9.268;2023-10-08T09:40:11;98417.72;;;26.85;76.34
5284;BME280;15377;48.540;9.268;2023-10-08T09:42:41;98423.69;;;26.74;73.50
5284;BME280;15377;48.540;9.268;2023-10-08T09:45:07;98427.34;;;25.85;67.57
5284;BME280;15377;48.540;9.268;2023-10-08T09:47:36;98431.47;;;26.05;74.80
5284;BME280;15377;48.540;9.268;2023-10-08T09:50:04;98425.44;;;27.20;64.79
5284;BME280;15377;48.540;9.268;2023-10-08T09:55:10;98413.31;;;29.14;55.10
5284;BME280;15377;48.540;9.268;2023-10-08T09:57:36;98411.34;;;29.32;52.06
5284;BME280;15377;48.540;9.268;2023-10-08T10:00:04;98404.53;;;29.67;49.79
5284;BME280;15377;48.540;9.268;2023-10-08T10:02:32;98418.13;;;29.93;49.37
5284;BME280;15377;48.540;9.268;2023-10-08T10:04:59;98427.22;;;29.67;47.68
5284;BME280;15377;48.540;9.268;2023-10-08T10:07:26;98420.13;;;29.83;46.54
5284;BME280;15377;48.540;9.268;2023-10-08T10:09:54;98412.56;;;29.14;47.24
5284;BME280;15377;48.540;9.268;2023-10-08T10:12:27;98417.44;;;29.60;46.66
5284;BME280;15377;48.540;9.268;2023-10-08T10:14:54;98411.97;;;29.15;47.25
5284;BME280;15377;48.540;9.268;2023-10-08T10:17:27;98407.47;;;28.20;45.80
5284;BME280;15377;48.540;9.268;2023-10-08T10:19:57;98406.25;;;27.41;43.93
5284;BME280;15377;48.540;9.268;2023-10-08T10:22:33;98403.59;;;27.28;46.54
5284;BME280;15377;48.540;9.268;2023-10-08T10:25:00;98402.25;;;26.79;46.62
5284;BME280;15377;48.540;9.268;2023-10-08T10:27:29;98400.31;;;26.74;46.26
5284;BME280;15377;48.540;9.268;2023-10-08T10:30:04;98390.00;;;26.48;48.46
5284;BME280;15377;48.540;9.268;2023-10-08T10:32:34;98399.59;;;26.17;49.93
5284;BME280;15377;48.540;9.268;2023-10-08T10:35:00;98400.69;;;26.14;48.33
5284;BME280;15377;48.540;9.268;2023-10-08T10:37:29;98391.72;;;25.95;48.99
5284;BME280;15377;48.540;9.268;2023-10-08T10:40:06;98405.03;;;25.74;48.15
5284;BME280;15377;48.540;9.268;2023-10-08T10:42:36;98397.81;;;25.86;49.15
5284;BME280;15377;48.540;9.268;2023-10-08T10:45:13;98394.78;;;26.33;50.07
5284;BME280;15377;48.540;9.268;2023-10-08T10:47:56;98393.03;;;26.50;49.23
5284;BME280;15377;48.540;9.268;2023-10-08T10:50:36;98394.31;;;26.77;48.59
5284;BME280;15377;48.540;9.268;2023-10-08T10:53:13;98389.06;;;26.81;47.33
5284;BME280;15377;48.540;9.268;2023-10-08T10:55:40;98390.31;;;26.65;46.00
5284;BME280;15377;48.540;9.268;2023-10-08T10:58:13;98393.34;;;26.67;47.52
5284;BME280;15377;48.540;9.268;2023-10-08T11:00:44;98388.59;;;27.05;47.16
5284;BME280;15377;48.540;9.268;2023-10-08T11:03:10;98383.94;;;27.15;45.81
5284;BME280;15377;48.540;9.268;2023-10-08T11:05:42;98389.28;;;27.41;45.94
5284;BME280;15377;48.540;9.268;2023-10-08T11:08:13;98387.78;;;27.33;45.23
5284;BME280;15377;48.540;9.268;2023-10-08T11:10:42;98382.34;;;27.42;46.39
5284;BME280;15377;48.540;9.268;2023-10-08T11:13:15;98391.78;;;27.52;44.08
5284;BME280;15377;48.540;9.268;2023-10-08T11:15:42;98385.88;;;27.28;45.88
5284;BME280;15377;48.540;9.268;2023-10-08T11:18:10;98380.66;;;27.54;44.46
5284;BME280;15377;48.540;9.268;2023-10-08T11:20:36;98388.00;;;27.57;43.88
5284;BME280;15377;48.540;9.268;2023-10-08T11:23:06;98378.06;;;27.86;45.27
5284;BME280;15377;48.540;9.268;2023-10-08T11:26:03;98384.63;;;27.73;45.96
5284;BME280;15377;48.540;9.268;2023-10-08T11:28:34;98385.78;;;27.93;46.65
5284;BME280;15377;48.540;9.268;2023-10-08T11:31:01;98383.31;;;28.12;44.32
5284;BME280;15377;48.540;9.268;2023-10-08T11:33:37;98386.34;;;28.14;45.87
5284;BME280;15377;48.540;9.268;2023-10-08T11:36:06;98379.72;;;28.19;44.56
5284;BME280;15377;48.540;9.268;2023-10-08T11:38:39;98376.91;;;28.19;44.48
5284;BME280;15377;48.540;9.268;2023-10-08T11:41:13;98384.06;;;27.60;45.33
5284;BME280;15377;48.540;9.268;2023-10-08T11:43:52;98372.78;;;27.75;48.25
5284;BME280;15377;48.540;9.268;2023-10-08T11:46:30;98384.09;;;27.75;48.89
5284;BME280;15377;48.540;9.268;2023-10-08T11:49:04;98362.41;;;27.77;48.87
5284;BME280;15377;48.540;9.268;2023-10-08T11:51:38;98370.69;;;27.75;49.27
5284;BME280;15377;48.540;9.268;2023-10-08T11:54:05;98367.69;;;27.81;49.18
5284;BME280;15377;48.540;9.268;2023-10-08T11:56:31;98371.47;;;27.91;49.18
5284;BME280;15377;48.540;9.268;2023-10-08T11:59:01;98359.97;;;27.89;49.74
5284;BME280;15377;48.540;9.268;2023-10-08T12:01:30;98356.56;;;27.98;49.24
5284;BME280;15377;48.540;9.268;2023-10-08T12:04:00;98358.81;;;27.99;49.03
5284;BME280;15377;48.540;9.268;2023-10-08T12:06:26;98361.47;;;27.90;49.02
5284;BME280;15377;48.540;9.268;2023-10-08T12:08:55;98360.09;;;27.39;50.36
5284;BME280;15377;48.540;9.268;2023-10-08T12:11:24;98365.38;;;27.42;51.18
5284;BME280;15377;48.540;9.268;2023-10-08T12:13:57;98359.31;;;27.38;52.25
5284;BME280;15377;48.540;9.268;2023-10-08T12:16:24;98353.88;;;27.48;53.29
5284;BME280;15377;48.540;9.268;2023-10-08T12:18:51;98353.44;;;27.29;53.01
5284;BME280;15377;48.540;9.268;2023-10-08T12:21:27;98348.94;;;27.33;53.57
5284;BME280;15377;48.540;9.268;2023-10-08T12:23:55;98351.22;;;27.35;55.05
5284;BME280;15377;48.540;9.268;2023-10-08T12:26:20;98343.66;;;27.22;54.27
5284;BME280;15377;48.540;9.268;2023-10-08T12:28:47;98341.34;;;27.13;54.25
5284;BME280;15377;48.540;9.268;2023-10-08T12:31:17;98336.25;;;27.04;54.79
5284;BME280;15377;48.540;9.268;2023-10-08T12:33:50;98338.28;;;26.96;53.83
5284;BME280;15377;48.540;9.268;2023-10-08T12:36:24;98336.78;;;26.95;53.50
5284;BME280;15377;48.540;9.268;2023-10-08T12:38:51;98334.31;;;26.92;54.87
5284;BME280;15377;48.540;9.268;2023-10-08T12:41:23;98326.59;;;26.92;55.47
5284;BME280;15377;48.540;9.268;2023-10-08T12:43:52;98329.44;;;27.00;55.10
5284;BME280;15377;48.540;9.268;2023-10-08T12:46:18;98336.78;;;27.03;58.22
5284;BME280;15377;48.540;9.268;2023-10-08T12:48:44;98327.91;;;26.91;55.44
5284;BME280;15377;48.540;9.268;2023-10-08T12:51:13;98313.94;;;26.86;55.55
5284;BME280;15377;48.540;9.268;2023-10-08T12:53:38;98321.56;;;26.55;55.50
5284;BME280;15377;48.540;9.268;2023-10-08T12:56:08;98316.19;;;26.44;55.92
5284;BME280;15377;48.540;9.268;2023-10-08T12:58:40;98316.47;;;26.26;61.75
5284;BME280;15377;48.540;9.268;2023-10-08T13:01:17;98303.00;;;25.83;59.87
5284;BME280;15377;48.540;9.268;2023-10-08T13:03:46;98318.56;;;25.77;61.44
5284;BME280;15377;48.540;9.268;2023-10-08T13:06:18;98313.78;;;25.64;61.38
5284;BME280;15377;48.540;9.268;2023-10-08T13:08:51;98310.06;;;25.69;61.32
5284;BME280;15377;48.540;9.268;2023-10-08T13:11:20;98300.66;;;25.67;62.30
5284;BME280;15377;48.540;9.268;2023-10-08T13:13:53;98313.44;;;25.68;57.92
5284;BME280;15377;48.540;9.268;2023-10-08T13:16:21;98302.19;;;25.75;58.75
5284;BME280;15377;48.540;9.268;2023-10-08T13:18:48;98290.53;;;25.71;61.60
5284;BME280;15377;48.540;9.268;2023-10-08T13:21:13;98283.72;;;25.67;58.97
5284;BME280;15377;48.540;9.268;2023-10-08T13:23:39;98302.63;;;25.79;58.83
5284;BME280;15377;48.540;9.268;2023-10-08T13:26:05;98287.09;;;25.65;61.56
5284;BME280;15377;48.540;9.268;2023-10-08T13:28:33;98267.25;;;25.50;58.33
5284;BME280;15377;48.540;9.268;2023-10-08T13:31:00;98286.41;;;25.72;55.50